This is the latest recevied weather packets stored in our database for station/object KI5GCD-13. If no packets are shown the sender has not sent any weather packets the latest 10 day(s).
| Time | Temp. | Humidity | Pressure | Rain* | Wind** | Luminosity | Snow |
|---|---|---|---|---|---|---|---|
| 1777756187 | 18.89° C | 39% | 1016 hPa | 0 mm | 0.45 m/s, 268° | - | - |
| 1777755887 | 19.44° C | 38% | 1015.9 hPa | 0 mm | 1.34 m/s, 325° | - | - |
| 1777755587 | 19.44° C | 39% | 1016 hPa | 0 mm | 0 m/s | - | - |
| 1777755287 | 18.89° C | 41% | 1016 hPa | 0 mm | 0.89 m/s, 274° | - | - |
| 1777754987 | 20° C | 41% | 1016.2 hPa | 0 mm | 0.45 m/s, 253° | - | - |
| 1777754687 | 19.44° C | 39% | 1016.1 hPa | 0 mm | 0.89 m/s, 345° | - | - |
| 1777754387 | 20° C | 40% | 1016.2 hPa | 0 mm | 0.45 m/s, 314° | - | - |
| 1777754088 | 19.44° C | 37% | 1016.3 hPa | 0 mm | 0.89 m/s, 219° | - | - |
| 1777753787 | 19.44° C | 38% | 1016.2 hPa | 0 mm | 1.79 m/s, 261° | - | - |
| 1777753487 | 19.44° C | 40% | 1016.4 hPa | 0 mm | 0.89 m/s, 282° | - | - |
| 1777753187 | 20° C | 44% | 1016.3 hPa | 0 mm | 0.45 m/s, 268° | - | - |
| 1777752887 | 19.44° C | 41% | 1016.5 hPa | 0 mm | 0.89 m/s, 260° | - | - |
| 1777752587 | 18.33° C | 38% | 1016.3 hPa | 0 mm | 0.89 m/s, 206° | - | - |
| 1777752287 | 19.44° C | 42% | 1016.5 hPa | 0 mm | 0.89 m/s, 338° | - | - |
| 1777751987 | 20° C | 43% | 1016.5 hPa | 0 mm | 0.45 m/s, 269° | - | - |
| 1777751687 | 19.44° C | 43% | 1016.4 hPa | 0 mm | 0.89 m/s, 288° | - | - |
| 1777751387 | 18.89° C | 39% | 1016.4 hPa | 0 mm | 1.34 m/s, 307° | - | - |
| 1777751087 | 19.44° C | 39% | 1016.4 hPa | 0 mm | 0.45 m/s, 313° | - | - |
| 1777750787 | 20° C | 45% | 1016.1 hPa | 0 mm | 0.45 m/s, 258° | - | - |
| 1777750487 | 19.44° C | 38% | 1016.4 hPa | 0 mm | 1.34 m/s, 344° | - | - |
| 1777750187 | 19.44° C | 40% | 1016.3 hPa | 0 mm | 1.79 m/s, 353° | - | - |
| 1777749887 | 18.89° C | 43% | 1016.3 hPa | 0 mm | 0.89 m/s, 261° | - | - |
| 1777749587 | 18.89° C | 42% | 1016.3 hPa | 0 mm | 0.89 m/s, 289° | - | - |
| 1777749287 | 18.89° C | 43% | 1016.6 hPa | 0 mm | 1.34 m/s, 14° | - | - |
| 1777748987 | 18.89° C | 42% | 1016.6 hPa | 0 mm | 1.34 m/s, 328° | - | - |
* Rain latest hour (hover to see other rain measurements)
** Current wind speed in m/s (hover to see current wind gust speed)